createdAt,value
2017-05-11T00:00:14.680Z,82.34
2017-05-11T00:00:55.557Z,82.15
2017-05-11T00:01:36.443Z,82.34
2017-05-11T00:02:17.329Z,83
2017-05-11T00:02:58.201Z,82.62
2017-05-11T00:03:39.084Z,83.1
2017-05-11T00:04:19.966Z,83.1
2017-05-11T00:05:00.853Z,82.91
2017-05-11T00:05:41.735Z,82.53
2017-05-11T00:06:22.613Z,83.29
2017-05-11T00:07:03.499Z,82.81
2017-05-11T00:07:44.384Z,83.29
2017-05-11T00:08:25.265Z,82.71
2017-05-11T00:09:06.145Z,82.81
2017-05-11T00:09:47.025Z,83.1
2017-05-11T00:10:27.918Z,83.19
2017-05-11T00:11:08.791Z,83.29
2017-05-11T00:11:49.668Z,83.19
2017-05-11T00:12:30.552Z,83.29
2017-05-11T00:13:11.451Z,83.1
2017-05-11T00:13:52.330Z,83.19
2017-05-11T00:14:33.202Z,83.48
2017-05-11T00:15:14.097Z,83.48
2017-05-11T00:15:54.983Z,83.67
2017-05-11T00:16:35.866Z,83.48
2017-05-11T00:17:16.750Z,83.48
2017-05-11T00:17:57.640Z,83.19
2017-05-11T00:18:38.532Z,83.58
2017-05-11T00:19:19.412Z,83.29
2017-05-11T00:20:00.287Z,83.58
2017-05-11T00:20:41.171Z,83.39
2017-05-11T00:21:22.086Z,83.39
2017-05-11T00:22:02.948Z,83.48
2017-05-11T00:22:43.837Z,83.29
2017-05-11T00:23:24.726Z,83.67
2017-05-11T00:24:05.603Z,83.39
2017-05-11T00:24:46.487Z,83.39
2017-05-11T00:25:27.385Z,83.39
2017-05-11T00:26:08.284Z,83
2017-05-11T00:26:49.168Z,83.39
2017-05-11T00:27:30.043Z,83.1
2017-05-11T00:28:10.920Z,82.81
2017-05-11T00:28:51.816Z,83.1
2017-05-11T00:29:32.688Z,83
2017-05-11T00:30:13.568Z,82.91
2017-05-11T00:30:54.488Z,82.81
2017-05-11T00:31:35.348Z,82.62
2017-05-11T00:32:16.229Z,82.81
2017-05-11T00:32:57.095Z,82.62
2017-05-11T00:33:37.977Z,82.91
2017-05-11T00:34:18.860Z,82.91
2017-05-11T00:34:59.744Z,82.62
2017-05-11T00:35:40.611Z,82.62
2017-05-11T00:36:21.484Z,82.53
2017-05-11T00:37:02.373Z,82.81
2017-05-11T00:37:43.269Z,82.71
2017-05-11T00:38:24.147Z,82.62
2017-05-11T00:39:05.006Z,82.81
2017-05-11T00:39:45.874Z,82.91
2017-05-11T00:40:26.751Z,82.71
2017-05-11T00:41:07.629Z,82.91
2017-05-11T00:41:48.523Z,83.19
2017-05-11T00:42:29.389Z,83.44
2017-05-11T00:43:10.252Z,83.15
2017-05-11T00:43:51.125Z,83.53
2017-05-11T00:44:32.019Z,83.39
2017-05-11T00:45:12.916Z,83.72
2017-05-11T00:45:53.787Z,84.01
2017-05-11T00:46:34.678Z,84.1
2017-05-11T00:47:15.568Z,84.1
2017-05-11T00:47:56.454Z,83.72
2017-05-11T00:48:37.385Z,84.01
2017-05-11T00:49:18.264Z,84.29
2017-05-11T00:49:59.143Z,83.91
2017-05-11T00:50:40.022Z,84.39
2017-05-11T00:51:20.922Z,84.2
2017-05-11T00:52:01.808Z,84.67
2017-05-11T00:52:42.679Z,84.77
2017-05-11T00:53:23.582Z,84.67
2017-05-11T00:54:04.473Z,84.67
2017-05-11T00:54:45.342Z,84.67
2017-05-11T00:55:27.019Z,84.95
2017-05-11T00:56:07.891Z,85.05
2017-05-11T00:56:48.856Z,85.34
2017-05-11T00:57:29.689Z,85.62
2017-05-11T00:58:10.559Z,85.15
2017-05-11T00:58:51.434Z,85.15
2017-05-11T00:59:32.357Z,85.53
2017-05-11T01:00:13.217Z,85.53
2017-05-11T01:00:54.096Z,85.72
2017-05-11T01:01:34.983Z,85.43
2017-05-11T01:02:15.869Z,85.43
2017-05-11T01:02:56.756Z,86.29
2017-05-11T01:03:37.642Z,86.19
2017-05-11T01:04:18.534Z,86
2017-05-11T01:04:59.424Z,86.1
2017-05-11T01:05:40.298Z,86
2017-05-11T01:06:21.181Z,86
2017-05-11T01:07:02.066Z,86.47
2017-05-11T01:07:42.973Z,86.38
2017-05-11T01:08:23.839Z,86.38
2017-05-11T01:09:04.710Z,86.29
2017-05-11T01:09:45.592Z,86.38
2017-05-11T01:10:26.488Z,86.29
2017-05-11T01:11:07.352Z,85.91
2017-05-11T01:11:48.226Z,85.91
2017-05-11T01:12:29.095Z,86.29
2017-05-11T01:13:09.968Z,86.38
2017-05-11T01:13:50.845Z,85.53
2017-05-11T01:14:31.715Z,85.91
2017-05-11T01:15:12.598Z,85.34
2017-05-11T01:15:53.480Z,85.43
2017-05-11T01:16:34.360Z,85.43
2017-05-11T01:17:15.246Z,85.34
2017-05-11T01:17:56.132Z,85.81
2017-05-11T01:18:36.993Z,85.43
2017-05-11T01:19:17.859Z,86.29
2017-05-11T01:19:58.724Z,85.15
2017-05-11T01:20:39.646Z,86.38
2017-05-11T01:21:20.527Z,86.19
2017-05-11T01:22:01.384Z,86.19
2017-05-11T01:22:42.252Z,85.62
2017-05-11T01:23:23.114Z,86.19
2017-05-11T01:24:04.011Z,86.19
2017-05-11T01:24:44.939Z,85.53
2017-05-11T01:26:12.996Z,85.53
2017-05-11T01:26:53.842Z,85.53
2017-05-11T01:27:34.703Z,85.72
2017-05-11T01:28:15.578Z,86.19
2017-05-11T01:28:56.459Z,86.1
2017-05-11T01:29:37.343Z,86.29
2017-05-11T01:30:18.233Z,86.29
2017-05-11T01:30:59.091Z,86.19
2017-05-11T01:31:39.960Z,86.19
2017-05-11T01:32:20.817Z,86.29
2017-05-11T01:33:01.677Z,86.38
2017-05-11T01:33:42.549Z,86.57
2017-05-11T01:34:23.439Z,86.57
2017-05-11T01:35:04.311Z,86.86
2017-05-11T01:35:45.194Z,86.86
2017-05-11T01:36:26.070Z,86.86
2017-05-11T01:37:06.957Z,86.76
2017-05-11T01:37:47.846Z,86.67
2017-05-11T01:38:28.728Z,87.62
2017-05-11T01:39:09.602Z,87.34
2017-05-11T01:39:50.481Z,87.14
2017-05-11T01:40:31.378Z,87.62
2017-05-11T01:41:12.260Z,87.24
2017-05-11T01:41:53.127Z,87.29
2017-05-11T01:42:34.013Z,87.71
2017-05-11T01:43:14.913Z,87.34
2017-05-11T01:43:55.799Z,87.76
2017-05-11T01:44:36.682Z,88.09
2017-05-11T01:45:17.554Z,88.24
2017-05-11T01:45:58.447Z,87.86
2017-05-11T01:46:39.340Z,88.24
2017-05-11T01:47:20.198Z,88.15
2017-05-11T01:48:01.063Z,88.15
2017-05-11T01:48:41.923Z,88.24
2017-05-11T01:49:22.805Z,88.09
2017-05-11T01:50:03.698Z,87.95
2017-05-11T01:50:44.581Z,87.95
2017-05-11T01:51:25.452Z,87.86
2017-05-11T01:52:06.342Z,87.86
2017-05-11T01:52:47.227Z,88.15
2017-05-11T01:53:28.128Z,88.24
2017-05-11T01:54:08.994Z,88.43
2017-05-11T01:54:49.878Z,88.34
2017-05-11T01:55:30.764Z,88.24
2017-05-11T01:56:11.644Z,88.24
2017-05-11T01:56:52.504Z,88.24
2017-05-11T01:57:33.377Z,88.05
2017-05-11T01:58:14.270Z,87.67
2017-05-11T01:58:55.164Z,87.86
2017-05-11T01:59:36.084Z,88.24
2017-05-11T02:00:16.933Z,87.86
2017-05-11T02:00:57.800Z,87.86
2017-05-11T02:01:38.661Z,88.05
2017-05-11T02:02:19.545Z,88.24
2017-05-11T02:03:00.434Z,87.57
2017-05-11T02:03:41.303Z,88.05
2017-05-11T02:04:22.163Z,88.05
2017-05-11T02:05:03.032Z,88.15
2017-05-11T02:05:43.915Z,87.67
2017-05-11T02:06:24.810Z,88.15
2017-05-11T02:07:05.691Z,88.62
2017-05-11T02:07:46.577Z,88.62
2017-05-11T02:08:27.466Z,88.71
2017-05-11T02:09:08.348Z,89.09
2017-05-11T02:09:49.222Z,88.71
2017-05-11T02:10:30.090Z,88.71
2017-05-11T02:11:10.969Z,88.43
2017-05-11T02:11:51.859Z,87.67
2017-05-11T02:12:32.744Z,88.15
2017-05-11T02:13:13.615Z,88.24
2017-05-11T02:13:54.495Z,87.95
2017-05-11T02:14:35.376Z,87.95
2017-05-11T02:16:36.630Z,88.43
2017-05-11T02:17:17.507Z,88.81
2017-05-11T02:17:58.389Z,88.62
2017-05-11T02:18:39.265Z,88.43
2017-05-11T02:19:20.137Z,88.81
2017-05-11T02:20:01.006Z,88.71
2017-05-11T02:20:41.894Z,88.62
2017-05-11T02:21:22.776Z,88.62
2017-05-11T02:22:03.655Z,88.43
2017-05-11T02:22:45.370Z,89.19
2017-05-11T02:23:26.261Z,89.19
2017-05-11T02:24:07.149Z,89
2017-05-11T02:24:48.020Z,89.09
2017-05-11T02:25:28.905Z,89.28
2017-05-11T02:26:09.794Z,89
2017-05-11T02:26:50.678Z,88.9
2017-05-11T02:27:31.552Z,89.19
2017-05-11T02:28:12.445Z,88.9
2017-05-11T02:28:53.325Z,89.19
2017-05-11T02:29:34.213Z,88.9
2017-05-11T02:30:15.090Z,89.47
2017-05-11T02:30:55.992Z,89.67
2017-05-11T02:31:36.879Z,89.19
2017-05-11T02:32:17.759Z,89.67
2017-05-11T02:32:58.638Z,89.95
2017-05-11T02:33:39.552Z,89.76
2017-05-11T02:34:20.414Z,89.86
2017-05-11T02:35:01.294Z,89.76
2017-05-11T02:35:42.163Z,89.67
2017-05-11T02:36:23.073Z,89.76
2017-05-11T02:37:03.965Z,90.23
2017-05-11T02:37:44.860Z,89.95
2017-05-11T02:38:25.739Z,89.76
2017-05-11T02:39:06.621Z,89.67
2017-05-11T02:39:47.638Z,89.95
2017-05-11T02:40:28.520Z,90.42
2017-05-11T02:41:09.399Z,89.67
2017-05-11T02:41:50.275Z,89.57
2017-05-11T02:42:31.156Z,89.67
2017-05-11T02:44:04.379Z,90.05
2017-05-11T02:44:45.255Z,90.23
2017-05-11T02:45:26.140Z,90.23
2017-05-11T02:46:07.042Z,90.33
2017-05-11T02:46:47.912Z,90.9
2017-05-11T02:47:28.795Z,90.42
2017-05-11T02:48:09.677Z,90.9
2017-05-11T02:48:50.545Z,90.9
2017-05-11T02:49:31.434Z,90.52
2017-05-11T02:50:12.321Z,90.52
2017-05-11T02:50:53.206Z,91.19
2017-05-11T02:51:34.079Z,90.99
2017-05-11T02:52:14.969Z,91.38
2017-05-11T02:52:55.856Z,90.9
2017-05-11T02:53:36.726Z,90.52
2017-05-11T02:54:17.605Z,90.9
2017-05-11T02:54:58.485Z,91.28
2017-05-11T02:55:39.374Z,90.9
2017-05-11T02:56:20.253Z,90.99
2017-05-11T02:57:01.133Z,90.8
2017-05-11T02:57:42.002Z,91.09
2017-05-11T02:58:22.893Z,91.19
2017-05-11T02:59:03.758Z,91.09
2017-05-11T02:59:44.622Z,90.99
2017-05-11T03:00:25.504Z,90.99
2017-05-11T03:01:06.380Z,90.9
2017-05-11T03:01:47.272Z,91.28
2017-05-11T03:02:28.176Z,90.9
2017-05-11T03:03:09.039Z,91.09
2017-05-11T03:03:49.920Z,91.09
2017-05-11T03:04:30.812Z,91.09
2017-05-11T03:05:11.701Z,90.9
2017-05-11T03:05:52.575Z,91.66
2017-05-11T03:06:33.458Z,91.56
2017-05-11T03:07:14.349Z,92.42
2017-05-11T03:07:55.238Z,92.32
2017-05-11T03:08:36.107Z,91.85
2017-05-11T03:09:17.000Z,92.32
2017-05-11T03:09:58.219Z,91.94
2017-05-11T03:10:39.104Z,92.23
2017-05-11T03:11:20.010Z,92.32
2017-05-11T03:12:00.896Z,92.32
2017-05-11T03:12:41.775Z,92.13
2017-05-11T03:13:22.659Z,92.32
2017-05-11T03:14:03.534Z,92.71
2017-05-11T03:14:44.420Z,92.61
2017-05-11T03:15:25.296Z,92.61
2017-05-11T03:16:06.170Z,92.32
2017-05-11T03:16:47.060Z,92.94
2017-05-11T03:17:27.954Z,92.71
2017-05-11T03:18:08.829Z,92.51
2017-05-11T03:18:49.706Z,93.18
2017-05-11T03:19:30.596Z,93.08
2017-05-11T03:20:11.480Z,92.9
2017-05-11T03:20:53.097Z,93.7
2017-05-11T03:21:33.989Z,93.75
2017-05-11T03:22:14.873Z,94.32
2017-05-11T03:22:55.746Z,94.51
2017-05-11T03:23:36.618Z,94.51
2017-05-11T03:24:17.499Z,93.75
2017-05-11T03:24:58.399Z,94.51
2017-05-11T03:25:39.282Z,94.03
2017-05-11T03:26:20.146Z,93.65
2017-05-11T03:27:01.019Z,93.56
2017-05-11T03:27:41.895Z,94.03
2017-05-11T03:28:22.784Z,93.65
2017-05-11T03:29:03.675Z,93.56
2017-05-11T03:29:44.552Z,93.84
2017-05-11T03:30:25.424Z,93.94
2017-05-11T03:31:06.317Z,94.51
2017-05-11T03:31:47.190Z,93.65
2017-05-11T03:32:28.063Z,94.32
2017-05-11T03:33:08.928Z,94.13
2017-05-11T03:33:49.798Z,94.03
2017-05-11T03:34:30.693Z,94.23
2017-05-11T03:35:11.584Z,94.32
2017-05-11T03:35:52.458Z,94.51
2017-05-11T03:36:33.335Z,94.23
2017-05-11T03:37:14.215Z,94.51
2017-05-11T03:37:55.106Z,94.23
2017-05-11T03:38:35.987Z,94.23
2017-05-11T03:39:16.873Z,93.65
2017-05-11T03:39:57.781Z,93.94
2017-05-11T03:40:38.692Z,94.03
2017-05-11T03:41:19.526Z,93.56
2017-05-11T03:42:00.401Z,94.03
2017-05-11T03:42:41.285Z,94.03
2017-05-11T03:43:22.171Z,93.94
2017-05-11T03:44:03.061Z,94.51
2017-05-11T03:44:43.950Z,94.23
2017-05-11T03:45:24.845Z,93.84
2017-05-11T03:46:05.721Z,93.65
2017-05-11T03:46:46.631Z,93.65
2017-05-11T03:47:27.520Z,93.94
2017-05-11T03:48:08.406Z,93.75
2017-05-11T03:48:49.290Z,93.18
2017-05-11T03:49:30.181Z,93.08
2017-05-11T03:50:11.034Z,93.08
2017-05-11T03:50:51.929Z,93.75
2017-05-11T03:51:32.808Z,93.84
2017-05-11T03:52:13.694Z,93.27
2017-05-11T03:52:54.576Z,93.23
2017-05-11T03:53:35.469Z,93.18
2017-05-11T03:54:16.347Z,93.08
2017-05-11T03:54:57.228Z,93.46
2017-05-11T03:55:38.105Z,93.27
2017-05-11T03:56:18.989Z,93.27
2017-05-11T03:56:59.870Z,93.04
2017-05-11T03:57:40.750Z,93.08
2017-05-11T03:58:21.633Z,93.04
2017-05-11T03:59:02.516Z,92.94
2017-05-11T03:59:43.405Z,92.66
2017-05-11T04:00:24.277Z,92.75
2017-05-11T04:01:05.157Z,93.23
2017-05-11T04:01:46.047Z,93.04
2017-05-11T04:02:26.936Z,92.66
2017-05-11T04:03:07.818Z,92.99
2017-05-11T04:03:48.688Z,92.94
2017-05-11T04:04:29.566Z,92.75
2017-05-11T04:05:10.458Z,92.66
2017-05-11T04:05:51.330Z,92.75
2017-05-11T04:06:32.217Z,92.46
2017-05-11T04:07:13.108Z,92.56
2017-05-11T04:07:53.991Z,92.56
2017-05-11T04:08:34.889Z,93.13
2017-05-11T04:09:15.763Z,92.85
2017-05-11T04:09:56.651Z,93.41
2017-05-11T04:10:37.532Z,92.94
2017-05-11T04:11:18.410Z,93.51
2017-05-11T04:11:59.296Z,92.94
2017-05-11T04:12:40.184Z,93.23
2017-05-11T04:13:21.063Z,93.13
2017-05-11T04:14:01.947Z,93.41
2017-05-11T04:14:42.828Z,93.41
2017-05-11T04:15:23.713Z,93.13
2017-05-11T04:16:04.590Z,93.23
2017-05-11T04:16:45.479Z,92.85
2017-05-11T04:17:26.357Z,92.66
2017-05-11T04:18:07.241Z,92.46
2017-05-11T04:18:48.121Z,92.27
2017-05-11T04:19:29.027Z,92.27
2017-05-11T04:20:09.916Z,92.08
2017-05-11T04:20:50.802Z,92.37
2017-05-11T04:21:31.687Z,92.18
2017-05-11T04:22:12.572Z,92.18
2017-05-11T04:22:53.430Z,92.08
2017-05-11T04:23:34.313Z,91.89
2017-05-11T04:24:15.195Z,91.99
2017-05-11T04:24:56.071Z,91.23
2017-05-11T04:25:36.944Z,91.33
2017-05-11T04:26:17.840Z,91.52
2017-05-11T04:26:58.711Z,91.23
2017-05-11T04:27:39.577Z,91.71
2017-05-11T04:28:20.469Z,91.89
2017-05-11T04:29:01.352Z,91.94
2017-05-11T04:29:42.239Z,91.71
2017-05-11T04:30:23.121Z,91.37
2017-05-11T04:31:04.000Z,91.85
2017-05-11T04:31:44.894Z,91.94
2017-05-11T04:32:25.793Z,91.37
2017-05-11T04:33:06.677Z,92.32
2017-05-11T04:33:47.565Z,91.66
2017-05-11T04:34:28.441Z,91.61
2017-05-11T04:35:09.310Z,91.66
2017-05-11T04:35:50.188Z,91.56
2017-05-11T04:36:31.082Z,91.8
2017-05-11T04:37:11.972Z,92.75
2017-05-11T04:37:52.861Z,93.23
2017-05-11T04:38:33.746Z,92.94
2017-05-11T04:39:14.631Z,92.46
2017-05-11T04:39:55.547Z,92.27
2017-05-11T04:40:36.410Z,92.41
2017-05-11T04:41:17.278Z,91.75
2017-05-11T04:41:58.168Z,91.66
2017-05-11T04:42:39.049Z,91.47
2017-05-11T04:43:19.928Z,91.66
2017-05-11T04:44:00.814Z,91.47
2017-05-11T04:44:41.701Z,90.99
2017-05-11T04:45:22.585Z,90.7
2017-05-11T04:46:03.463Z,90.99
2017-05-11T04:46:44.350Z,90.8
2017-05-11T04:47:25.229Z,90.8
2017-05-11T04:48:06.113Z,91.08
2017-05-11T04:48:47.008Z,91.47
2017-05-11T04:49:27.876Z,90.89
2017-05-11T04:50:08.766Z,91.37
2017-05-11T04:50:49.646Z,90.8
2017-05-11T04:51:30.534Z,90.04
2017-05-11T04:52:11.414Z,90.14
2017-05-11T04:52:52.299Z,89.94
2017-05-11T04:53:33.188Z,90.04
2017-05-11T04:54:14.061Z,90.04
2017-05-11T04:54:54.945Z,90.61
2017-05-11T04:55:35.826Z,90.42
2017-05-11T04:56:16.710Z,90.42
2017-05-11T04:56:57.586Z,90.04
2017-05-11T04:57:38.473Z,90.08
2017-05-11T04:58:19.366Z,89.37
2017-05-11T04:59:00.251Z,89.47
2017-05-11T04:59:41.133Z,89.23
2017-05-11T05:01:15.414Z,89.42
2017-05-11T05:01:56.289Z,89.04
2017-05-11T05:02:37.165Z,88.75
2017-05-11T05:03:18.045Z,88.75
2017-05-11T05:03:58.927Z,89.04
2017-05-11T05:04:39.805Z,88.18
2017-05-11T05:05:20.694Z,88.37
2017-05-11T05:06:01.572Z,88.37
2017-05-11T05:06:42.444Z,88.18
2017-05-11T05:07:23.320Z,88.28
2017-05-11T05:08:04.205Z,88.18
2017-05-11T05:08:45.079Z,88.37
2017-05-11T05:09:25.962Z,88.66
2017-05-11T05:10:06.853Z,89.04
2017-05-11T05:10:47.727Z,88.94
2017-05-11T05:11:28.599Z,89.04
2017-05-11T05:12:09.477Z,88.85
2017-05-11T05:12:50.365Z,88.85
2017-05-11T05:13:31.255Z,89.04
2017-05-11T05:14:12.134Z,89.23
2017-05-11T05:14:53.029Z,89.14
2017-05-11T05:15:33.923Z,89.04
2017-05-11T05:16:14.807Z,88.56
2017-05-11T05:16:55.686Z,88.85
2017-05-11T05:17:36.575Z,88.28
2017-05-11T05:18:17.457Z,88.18
2017-05-11T05:18:58.336Z,88.37
2017-05-11T05:19:39.220Z,87.9
2017-05-11T05:20:20.128Z,87.9
2017-05-11T05:21:01.010Z,88.18
2017-05-11T05:21:41.889Z,87.9
2017-05-11T05:22:22.774Z,87.71
2017-05-11T05:23:03.643Z,87.61
2017-05-11T05:23:44.544Z,87.52
2017-05-11T05:24:25.440Z,86.99
2017-05-11T05:25:06.305Z,87.42
2017-05-11T05:25:47.183Z,87.13
2017-05-11T05:26:28.059Z,87.32
2017-05-11T05:27:08.935Z,87.42
2017-05-11T05:27:49.821Z,86.57
2017-05-11T05:28:30.707Z,86.8
2017-05-11T05:29:11.614Z,86.61
2017-05-11T05:29:52.476Z,86.8
2017-05-11T05:30:33.373Z,86.61
2017-05-11T05:31:14.302Z,86.42
2017-05-11T05:31:55.177Z,86.13
2017-05-11T05:32:36.058Z,85.85
2017-05-11T05:33:16.959Z,85.75
2017-05-11T05:33:57.847Z,85.47
2017-05-11T05:34:38.708Z,85.94
2017-05-11T05:35:19.584Z,85.66
2017-05-11T05:36:00.467Z,85.56
2017-05-11T05:36:41.357Z,85.47
2017-05-11T05:37:22.237Z,84.99
2017-05-11T05:38:03.105Z,84.89
2017-05-11T05:38:43.979Z,85.28
2017-05-11T05:39:24.858Z,85.37
2017-05-11T05:40:05.740Z,85.28
2017-05-11T05:40:46.631Z,85.18
2017-05-11T05:41:27.515Z,84.8
2017-05-11T05:42:08.398Z,84.89
2017-05-11T05:42:49.273Z,84.89
2017-05-11T05:43:30.152Z,85.08
2017-05-11T05:44:11.025Z,84.42
2017-05-11T05:44:51.911Z,84.42
2017-05-11T05:45:32.789Z,84.23
2017-05-11T05:46:13.672Z,84.04
2017-05-11T05:46:54.558Z,84.7
2017-05-11T05:47:35.458Z,85.18
2017-05-11T05:48:16.346Z,84.89
2017-05-11T05:48:57.254Z,84.89
2017-05-11T05:49:38.131Z,84.89
2017-05-11T05:50:19.021Z,84.42
2017-05-11T05:50:59.898Z,84.99
2017-05-11T05:51:40.770Z,84.42
2017-05-11T05:52:21.671Z,84.23
2017-05-11T05:53:02.554Z,84.13
2017-05-11T05:53:43.427Z,83.56
2017-05-11T05:54:24.285Z,83.37
2017-05-11T05:55:05.153Z,83.47
2017-05-11T05:55:46.043Z,83.94
2017-05-11T05:56:26.917Z,84.13
2017-05-11T05:57:07.804Z,84.23
2017-05-11T05:57:48.729Z,83.65
2017-05-11T05:58:29.610Z,84.04
2017-05-11T05:59:10.491Z,84.23
2017-05-11T05:59:51.367Z,83.56
2017-05-11T06:00:32.247Z,83.65
2017-05-11T06:01:13.141Z,83.75
2017-05-11T06:01:54.024Z,83.56
2017-05-11T06:02:34.909Z,83.75
2017-05-11T06:03:15.785Z,84.04
2017-05-11T06:03:56.674Z,83.75
2017-05-11T06:04:37.549Z,83.47
2017-05-11T06:05:18.409Z,82.99
2017-05-11T06:05:59.294Z,82.9
2017-05-11T06:06:40.165Z,82.84
2017-05-11T06:07:21.057Z,82.37
2017-05-11T06:08:01.947Z,82.56
2017-05-11T06:08:42.834Z,81.7
2017-05-11T06:09:23.765Z,81.89
2017-05-11T06:10:04.623Z,81.89
2017-05-11T06:10:45.494Z,81.6
2017-05-11T06:11:26.362Z,81.79
2017-05-11T06:12:07.243Z,81.79
2017-05-11T06:12:48.130Z,81.51
2017-05-11T06:13:29.013Z,81.6
2017-05-11T06:14:09.897Z,81.13
2017-05-11T06:14:50.792Z,80.75
2017-05-11T06:15:31.677Z,81.23
2017-05-11T06:16:12.556Z,81.13
2017-05-11T06:16:53.436Z,81.51
2017-05-11T06:17:34.300Z,81.51
2017-05-11T06:18:15.179Z,80.94
2017-05-11T06:18:56.072Z,81.23
2017-05-11T06:19:36.936Z,81.03
2017-05-11T06:20:17.829Z,80.94
2017-05-11T06:20:58.701Z,81.03
2017-05-11T06:21:39.583Z,80.46
2017-05-11T06:22:20.488Z,80.65
2017-05-11T06:23:01.368Z,80.75
2017-05-11T06:23:42.255Z,80.75
2017-05-11T06:24:23.134Z,80.08
2017-05-11T06:25:04.016Z,79.8
2017-05-11T06:25:44.901Z,79.51
2017-05-11T06:26:25.801Z,79.03
2017-05-11T06:27:06.679Z,79.17
2017-05-11T06:27:47.568Z,78.41
2017-05-11T06:28:28.456Z,78.22
2017-05-11T06:29:09.346Z,77.2
2017-05-11T06:29:50.231Z,76.54
2017-05-11T06:30:31.150Z,76.06
2017-05-11T06:31:12.016Z,75.4
2017-05-11T06:31:52.904Z,74.54
2017-05-11T06:32:33.795Z,74.38
2017-05-11T06:33:14.701Z,73.81
2017-05-11T06:33:55.570Z,72.8
2017-05-11T06:34:36.452Z,71.46
2017-05-11T06:35:17.343Z,70.54
2017-05-11T06:35:58.225Z,69.62
2017-05-11T06:36:39.110Z,68.1
2017-05-11T06:37:19.992Z,66.03
2017-05-11T06:38:00.881Z,64.53
2017-05-11T06:38:41.776Z,63.76
2017-05-11T06:39:22.664Z,62.74
2017-05-11T06:40:03.551Z,61.22
2017-05-11T06:40:44.453Z,61.02
2017-05-11T06:41:25.342Z,59.62
2017-05-11T06:42:06.230Z,59.36
2017-05-11T06:42:47.103Z,57.89
2017-05-11T06:43:28.004Z,55.58
2017-05-11T06:44:08.890Z,54.39
2017-05-11T06:44:49.778Z,52.76
2017-05-11T06:45:30.676Z,51.06
2017-05-11T06:46:11.566Z,50.29
2017-05-11T06:46:52.462Z,49.74
2017-05-11T06:47:33.350Z,48.11
2017-05-11T06:48:14.230Z,48.59
2017-05-11T06:48:55.113Z,47.94
2017-05-11T06:49:36.001Z,47.17
2017-05-11T06:50:16.907Z,47.56
2017-05-11T06:50:57.807Z,47.22
2017-05-11T06:51:38.697Z,45.99
2017-05-11T06:52:19.613Z,44.07
2017-05-11T06:53:00.470Z,42.82
2017-05-11T06:53:41.389Z,43.51
2017-05-11T06:54:22.347Z,42.72
2017-05-11T06:55:03.190Z,42.87
2017-05-11T06:55:44.080Z,44.12
2017-05-11T06:56:24.989Z,44.22
2017-05-11T06:57:05.897Z,44.31
2017-05-11T06:57:46.792Z,44.51
2017-05-11T06:58:27.717Z,43.47
2017-05-11T06:59:08.643Z,43.35
2017-05-11T06:59:49.535Z,43.71
2017-05-11T07:00:30.431Z,44.77
2017-05-11T07:01:11.324Z,45.04
2017-05-11T07:01:52.209Z,45.73
2017-05-11T07:02:33.089Z,45.45
2017-05-11T07:03:14.012Z,45.98
2017-05-11T07:03:54.917Z,45.9
2017-05-11T07:04:35.811Z,45.61
2017-05-11T07:05:16.704Z,45.42
2017-05-11T07:05:57.598Z,45.52
2017-05-11T07:06:38.489Z,46.17
2017-05-11T07:07:19.399Z,46.19
2017-05-11T07:08:00.297Z,45.64
2017-05-11T07:08:41.195Z,44.89
2017-05-11T07:09:22.079Z,44.31
2017-05-11T07:10:02.981Z,44
2017-05-11T07:10:43.870Z,44.29
2017-05-11T07:11:24.775Z,44.87
2017-05-11T07:12:05.658Z,44.1
2017-05-11T07:12:46.563Z,44.31
2017-05-11T07:13:27.456Z,44.2
2017-05-11T07:14:08.355Z,44.29
2017-05-11T07:14:49.258Z,44.1
2017-05-11T07:15:30.153Z,43.57
2017-05-11T07:16:11.033Z,43.01
2017-05-11T07:16:51.936Z,43.28
2017-05-11T07:17:32.829Z,42.63
2017-05-11T07:18:13.737Z,41.41
2017-05-11T07:18:54.643Z,40.86
2017-05-11T07:19:35.537Z,39.64
2017-05-11T07:20:16.436Z,37.89
2017-05-11T07:20:57.315Z,38.37
2017-05-11T07:21:38.243Z,37.21
2017-05-11T07:22:19.146Z,37.98
2017-05-11T07:23:00.030Z,36.46
2017-05-11T07:23:40.935Z,36.48
2017-05-11T07:24:21.834Z,35.59
2017-05-11T07:25:02.737Z,36.36
2017-05-11T07:25:43.631Z,36.85
2017-05-11T07:26:24.539Z,35.59
2017-05-11T07:27:05.430Z,36.57
2017-05-11T07:27:46.335Z,36
2017-05-11T07:28:27.247Z,36.29
2017-05-11T07:29:08.831Z,35.22
2017-05-11T07:29:49.742Z,35.42
2017-05-11T07:30:30.646Z,34.76
2017-05-11T07:31:11.545Z,34.28
2017-05-11T07:31:52.444Z,34.29
2017-05-11T07:32:33.331Z,33.92
2017-05-11T07:33:14.229Z,33.05
2017-05-11T07:33:55.151Z,33.15
2017-05-11T07:34:36.045Z,33.68
2017-05-11T07:35:16.960Z,34.55
2017-05-11T07:35:57.914Z,34.74
2017-05-11T07:36:38.836Z,34.92
2017-05-11T07:37:19.736Z,36.54
2017-05-11T07:38:00.643Z,36.52
2017-05-11T07:38:41.554Z,37.83
2017-05-11T07:39:22.455Z,37.87
2017-05-11T07:40:03.372Z,37.58
2017-05-11T07:40:44.268Z,37.48
2017-05-11T07:41:25.168Z,36.65
2017-05-11T07:42:06.062Z,35.52
2017-05-11T07:42:46.971Z,35.11
2017-05-11T07:43:27.880Z,35.21
2017-05-11T07:44:08.774Z,34.86
2017-05-11T07:44:49.672Z,33.91
2017-05-11T07:45:30.567Z,33.12
2017-05-11T07:46:11.465Z,34.26
2017-05-11T07:46:52.397Z,34.16
2017-05-11T07:47:33.286Z,35.75
2017-05-11T07:48:14.188Z,35.69
2017-05-11T07:48:55.087Z,35.02
2017-05-11T07:49:35.987Z,34.63
2017-05-11T07:50:16.897Z,34.82
2017-05-11T07:50:57.791Z,35.03
2017-05-11T07:51:38.693Z,34.36
2017-05-11T07:52:19.608Z,33.97
2017-05-11T07:53:00.508Z,34.52
2017-05-11T07:53:41.414Z,35.11
2017-05-11T07:54:22.346Z,35.61
2017-05-11T07:55:03.248Z,34.16
2017-05-11T07:55:44.125Z,34.18
2017-05-11T07:56:25.033Z,33.62
2017-05-11T07:57:05.938Z,33.25
2017-05-11T07:57:46.850Z,32.39
2017-05-11T07:58:27.743Z,32.09
2017-05-11T07:59:08.649Z,31.59
2017-05-11T07:59:49.548Z,31.23
2017-05-11T08:00:30.443Z,30.61
2017-05-11T08:01:11.352Z,32.46
2017-05-11T08:01:52.258Z,31.13
2017-05-11T08:02:33.157Z,30.66
2017-05-11T08:03:14.050Z,30.35
2017-05-11T08:03:54.952Z,30.91
2017-05-11T08:04:35.866Z,30.17
2017-05-11T08:05:16.760Z,29.5
2017-05-11T08:05:57.656Z,29.03
2017-05-11T08:06:38.561Z,28.65
2017-05-11T08:07:19.474Z,30.44
2017-05-11T08:08:00.376Z,30.83
2017-05-11T08:08:41.292Z,30.94
2017-05-11T08:09:22.197Z,30.66
2017-05-11T08:10:03.108Z,30.55
2017-05-11T08:10:44.010Z,30.36
2017-05-11T08:11:24.917Z,32.26
2017-05-11T08:12:05.825Z,30.65
2017-05-11T08:12:46.743Z,30.27
2017-05-11T08:13:27.645Z,29.63
2017-05-11T08:14:08.581Z,29.12
2017-05-11T08:14:49.491Z,29.5
2017-05-11T08:15:30.399Z,29.9
2017-05-11T08:16:11.298Z,29.23
2017-05-11T08:16:52.198Z,28.45
2017-05-11T08:17:33.107Z,28.45
2017-05-11T08:18:13.999Z,28.47
2017-05-11T08:18:54.919Z,29.02
2017-05-11T08:19:35.827Z,29.13
2017-05-11T08:20:16.732Z,29.33
2017-05-11T08:20:57.643Z,29.24
2017-05-11T08:21:38.544Z,29.05
2017-05-11T08:22:19.429Z,28.66
2017-05-11T08:23:00.337Z,28.86
2017-05-11T08:23:41.247Z,28.2
2017-05-11T08:24:22.156Z,27.64
2017-05-11T08:25:03.065Z,26.89
2017-05-11T08:25:44.013Z,25.92
2017-05-11T08:26:24.886Z,25.75
2017-05-11T08:27:05.801Z,25.74
2017-05-11T08:27:46.702Z,25.68
2017-05-11T08:28:27.616Z,27.78
2017-05-11T08:29:08.524Z,28.45
2017-05-11T08:29:49.431Z,28.55
2017-05-11T08:30:30.335Z,28.17
2017-05-11T08:31:11.254Z,29.28
2017-05-11T08:31:52.153Z,29.81
2017-05-11T08:32:33.063Z,28
2017-05-11T08:33:13.968Z,26.65
2017-05-11T08:33:54.868Z,26.63
2017-05-11T08:34:35.771Z,27.96
2017-05-11T08:35:16.676Z,27.96
2017-05-11T08:35:57.595Z,27.78
2017-05-11T08:36:38.487Z,27.53
2017-05-11T08:37:19.392Z,27.06
2017-05-11T08:38:00.284Z,26.09
2017-05-11T08:38:41.208Z,26.18
2017-05-11T08:39:22.099Z,25.81
2017-05-11T08:40:03.044Z,25.7
2017-05-11T08:40:43.952Z,25.95
2017-05-11T08:41:24.854Z,27.15
2017-05-11T08:42:05.764Z,26.59
2017-05-11T08:42:46.668Z,25.99
2017-05-11T08:43:27.565Z,26.45
2017-05-11T08:44:08.484Z,27.42
2017-05-11T08:44:49.376Z,25.99
2017-05-11T08:45:30.288Z,25.74
2017-05-11T08:46:11.186Z,25.46
2017-05-11T08:46:52.087Z,24.01
2017-05-11T08:47:32.986Z,23.73
2017-05-11T08:48:13.885Z,23.04
2017-05-11T08:48:54.793Z,23.6
2017-05-11T08:49:35.689Z,25.59
2017-05-11T08:50:16.581Z,25.9
2017-05-11T08:50:57.489Z,25.62
2017-05-11T08:51:38.387Z,25.9
2017-05-11T08:52:19.306Z,25.93